Time;durP1;ratioP1;P1;durP2;ratioP2;P2;SDS_P1;SDS_P2;PMS_P1;PMS_P2;Temp;Humidity;BMP_temperature;BMP_pressure;BME280_temperature;BME280_humidity;BME280_pressure;Samples;Min_cycle;Max_cycle;Signal;HPM_P1;HPM_P2
2022/09/10 00:01:39;;;;;;;3.50;1.80;;;;;;;21.45;80.60;98902.88;5089730;28;20251;-62
2022/09/10 00:04:10;;;;;;;3.43;2.37;;;;;;;21.45;80.59;98905.50;5089767;28;20710;-61
2022/09/10 00:06:37;;;;;;;2.33;1.90;;;;;;;21.46;80.31;98907.09;5089894;28;20254;-62
2022/09/10 00:09:05;;;;;;;1.87;1.73;;;;;;;21.51;80.07;98900.53;5089765;28;20217;-62
2022/09/10 00:11:35;;;;;;;3.73;2.00;;;;;;;21.47;80.30;98898.31;5090009;28;20696;-62
2022/09/10 00:14:05;;;;;;;1.77;1.67;;;;;;;21.47;80.94;98893.13;5089628;28;20310;-61
2022/09/10 00:16:32;;;;;;;3.50;2.37;;;;;;;21.50;80.46;98896.31;5089819;28;20209;-62
2022/09/10 00:19:01;;;;;;;3.13;2.47;;;;;;;21.50;80.37;98891.13;5089836;28;20225;-62
2022/09/10 00:21:28;;;;;;;3.33;1.90;;;;;;;21.45;80.31;98892.50;5089823;28;20289;-61
2022/09/10 00:23:55;;;;;;;2.00;1.67;;;;;;;21.42;80.62;98899.84;5089513;28;20725;-62
2022/09/10 00:26:24;;;;;;;3.27;2.10;;;;;;;21.37;81.11;98897.81;5089604;28;20208;-61
2022/09/10 00:28:54;;;;;;;2.70;2.30;;;;;;;21.33;81.07;98901.75;5089932;28;20218;-61
2022/09/10 00:31:22;;;;;;;2.63;2.17;;;;;;;21.36;80.81;98903.19;5089819;28;20261;-61
2022/09/10 00:33:51;;;;;;;2.97;2.00;;;;;;;21.37;80.44;98897.81;5089883;28;20570;-61
2022/09/10 00:36:20;;;;;;;1.70;1.60;;;;;;;21.37;80.16;98900.41;5089616;28;20283;-61
2022/09/10 00:38:47;;;;;;;2.87;2.07;;;;;;;21.34;80.14;98898.16;5089836;28;20220;-61
2022/09/10 00:41:16;;;;;;;2.10;1.90;;;;;;;21.33;80.61;98900.94;5089522;28;20227;-62
2022/09/10 00:43:49;;;;;;;2.70;2.20;;;;;;;21.33;80.61;98899.16;5089791;28;20227;-62
2022/09/10 00:46:25;;;;;;;2.03;1.77;;;;;;;21.29;80.83;98897.88;5090127;28;20205;-61
2022/09/10 00:48:54;;;;;;;2.37;2.17;;;;;;;21.27;81.25;98891.28;5089325;28;20280;-62
2022/09/10 00:51:22;;;;;;;2.47;2.13;;;;;;;21.23;81.80;98885.63;5089349;28;20197;-62
2022/09/10 00:53:50;;;;;;;2.43;1.90;;;;;;;21.18;81.61;98888.00;5092332;28;20221;-62
2022/09/10 00:56:17;;;;;;;2.20;1.97;;;;;;;21.21;81.97;98887.63;5093367;28;20203;-62
2022/09/10 00:58:46;;;;;;;3.47;2.10;;;;;;;21.21;81.43;98887.63;5093677;28;20613;-61
2022/09/10 01:01:13;;;;;;;3.00;2.03;;;;;;;21.18;81.72;98882.78;5093259;28;20328;-61
2022/09/10 01:03:44;;;;;;;3.00;1.90;;;;;;;21.09;81.96;98883.88;5093655;28;20260;-62
2022/09/10 01:06:12;;;;;;;3.93;2.27;;;;;;;21.00;81.96;98885.78;5093144;28;20607;-62
2022/09/10 01:08:39;;;;;;;2.73;2.17;;;;;;;20.97;82.08;98881.78;5093046;28;20218;-62
2022/09/10 01:11:16;;;;;;;2.10;1.80;;;;;;;20.99;81.76;98877.19;5092926;28;20216;-62
2022/09/10 01:13:57;;;;;;;2.20;1.90;;;;;;;20.95;81.86;98878.53;5093393;28;20701;-61
2022/09/10 01:16:38;;;;;;;2.33;2.00;;;;;;;20.98;82.19;98880.78;5093337;28;20199;-62
2022/09/10 01:19:33;;;;;;;3.27;2.07;;;;;;;21.02;82.24;98871.59;5093036;28;20236;-62
2022/09/10 01:22:11;;;;;;;2.20;1.70;;;;;;;20.97;82.65;98876.56;5093103;28;20669;-61
2022/09/10 01:24:55;;;;;;;2.50;2.17;;;;;;;20.97;82.47;98876.56;5092807;28;20280;-62
2022/09/10 01:27:39;;;;;;;3.23;2.20;;;;;;;20.96;82.15;98874.13;5092988;28;20596;-61
2022/09/10 01:30:09;;;;;;;1.90;1.73;;;;;;;20.93;82.17;98870.13;5093102;28;20209;-62
2022/09/10 01:32:46;;;;;;;3.80;2.20;;;;;;;20.91;81.94;98869.47;5093246;28;20249;-61
2022/09/10 01:35:16;;;;;;;3.30;2.23;;;;;;;20.88;81.86;98867.25;5092756;28;20210;-62
2022/09/10 01:37:48;;;;;;;2.73;1.87;;;;;;;20.86;82.06;98869.25;5093105;28;20694;-62
2022/09/10 01:40:17;;;;;;;4.30;2.77;;;;;;;20.89;82.38;98865.47;5092537;28;20628;-62
2022/09/10 01:42:46;;;;;;;2.77;2.13;;;;;;;20.84;82.44;98873.81;5092983;28;20681;-61
2022/09/10 01:45:15;;;;;;;3.27;2.07;;;;;;;20.85;83.10;98883.19;5092560;28;20207;-62
2022/09/10 01:48:23;;;;;;;2.23;1.80;;;;;;;20.78;83.16;98877.13;5092445;28;20219;-61
2022/09/10 01:51:01;;;;;;;2.23;1.70;;;;;;;20.79;83.04;98873.53;5092522;28;20201;-62
2022/09/10 01:53:44;;;;;;;2.13;1.83;;;;;;;20.72;82.90;98881.25;5092915;28;20593;-62
2022/09/10 01:56:23;;;;;;;2.67;2.10;;;;;;;20.67;82.92;98887.97;5092341;28;20206;-61
2022/09/10 01:58:53;;;;;;;2.83;1.87;;;;;;;20.65;83.07;98882.16;5092590;28;20216;-62
2022/09/10 02:01:25;;;;;;;2.50;2.10;;;;;;;20.64;83.38;98875.34;5092212;28;20228;-61
2022/09/10 02:03:58;;;;;;;2.10;1.80;;;;;;;20.66;82.86;98878.59;5092181;28;20221;-61
2022/09/10 02:06:28;;;;;;;2.93;2.00;;;;;;;20.64;83.10;98875.34;5091515;28;20205;-62
2022/09/10 02:08:57;;;;;;;3.00;1.97;;;;;;;20.62;82.95;98872.13;5092319;28;20576;-62
2022/09/10 02:11:24;;;;;;;3.13;2.30;;;;;;;20.64;82.71;98875.34;5091999;28;20230;-62
2022/09/10 02:13:52;;;;;;;3.50;2.50;;;;;;;20.60;82.94;98869.72;5091745;28;20730;-62
2022/09/10 02:16:24;;;;;;;2.67;2.00;;;;;;;20.62;83.36;98861.72;5092226;28;20271;-62
2022/09/10 02:18:51;;;;;;;2.57;1.73;;;;;;;20.51;83.28;98865.59;5091666;28;20234;-62
2022/09/10 02:21:18;;;;;;;2.20;1.90;;;;;;;20.48;83.94;98874.53;5091745;28;20204;-61
2022/09/10 02:23:50;;;;;;;2.83;1.63;;;;;;;20.46;84.10;98871.31;5091668;28;20216;-62
2022/09/10 02:26:17;;;;;;;2.20;2.00;;;;;;;20.43;83.81;98868.28;5091780;28;20196;-62
2022/09/10 02:28:44;;;;;;;2.37;1.70;;;;;;;20.49;83.66;98873.53;5091403;28;20223;-61
2022/09/10 02:31:12;;;;;;;2.07;1.70;;;;;;;20.42;83.77;98872.66;5091471;28;20204;-61
2022/09/10 02:33:39;;;;;;;2.53;1.90;;;;;;;20.40;83.84;98874.63;5091546;28;20225;-61
2022/09/10 02:36:06;;;;;;;2.57;2.13;;;;;;;20.34;83.99;98870.16;5091203;28;20225;-62
2022/09/10 02:38:34;;;;;;;2.30;1.97;;;;;;;20.30;84.59;98874.91;5091749;28;20693;-61
2022/09/10 02:41:00;;;;;;;3.47;2.23;;;;;;;20.26;84.68;98883.22;5091553;28;20196;-62
2022/09/10 02:43:28;;;;;;;3.17;1.93;;;;;;;20.25;84.61;98876.41;5091799;28;20237;-61
2022/09/10 02:45:56;;;;;;;2.90;2.23;;;;;;;20.25;84.72;98879.81;5091373;28;20212;-62
2022/09/10 02:48:26;;;;;;;3.03;2.20;;;;;;;20.24;85.06;98882.56;5091554;28;20233;-61
2022/09/10 02:50:53;;;;;;;3.43;2.10;;;;;;;20.23;84.88;98876.59;5091827;28;20627;-62
2022/09/10 02:53:20;;;;;;;2.63;2.10;;;;;;;20.17;85.42;98879.88;5091680;28;20228;-62
2022/09/10 02:55:48;;;;;;;4.40;2.57;;;;;;;20.22;85.68;98874.97;5091307;28;20201;-61
2022/09/10 02:58:16;;;;;;;3.17;2.23;;;;;;;20.31;85.65;98873.09;5091161;28;20218;-61
2022/09/10 03:00:44;;;;;;;2.83;2.40;;;;;;;20.31;85.66;98875.69;5090885;28;20202;-62
2022/09/10 03:03:11;;;;;;;2.90;2.07;;;;;;;20.23;86.11;98868.00;5091139;28;20233;-61
2022/09/10 03:05:40;;;;;;;3.20;2.20;;;;;;;20.19;86.28;98874.50;5091173;28;20211;-61
2022/09/10 03:08:08;;;;;;;2.27;1.97;;;;;;;20.22;86.89;98882.75;5091383;28;20256;-61
2022/09/10 03:10:36;;;;;;;2.30;2.03;;;;;;;20.22;87.05;98874.19;5091296;28;20204;-62
2022/09/10 03:13:03;;;;;;;2.90;1.97;;;;;;;20.25;87.19;98874.63;5091230;28;20302;-61
2022/09/10 03:15:30;;;;;;;3.53;2.20;;;;;;;20.36;87.08;98868.16;5091389;28;20208;-62
2022/09/10 03:17:57;;;;;;;3.23;2.23;;;;;;;20.36;86.54;98868.16;5090589;28;20236;-61
2022/09/10 03:20:24;;;;;;;2.90;2.10;;;;;;;20.28;86.89;98870.88;5090433;28;20301;-62
2022/09/10 03:22:52;;;;;;;4.23;2.47;;;;;;;20.28;87.10;98870.88;5090654;28;20721;-61
2022/09/10 03:25:21;;;;;;;2.90;2.00;;;;;;;20.24;86.93;98874.78;5090445;28;20195;-62
2022/09/10 03:27:48;;;;;;;2.73;2.10;;;;;;;20.07;87.75;98874.97;5090809;28;20372;-61
2022/09/10 03:30:15;;;;;;;1.83;1.67;;;;;;;20.11;87.79;98876.22;5090257;28;20675;-62
2022/09/10 03:32:42;;;;;;;2.77;2.23;;;;;;;20.19;87.41;98882.28;5090467;28;20236;-61
2022/09/10 03:35:09;;;;;;;2.93;2.00;;;;;;;20.20;87.48;98876.13;5090967;28;20204;-61
2022/09/10 03:37:36;;;;;;;3.67;2.10;;;;;;;20.20;87.34;98879.53;5090977;28;20281;-61
2022/09/10 03:40:05;;;;;;;3.50;1.97;;;;;;;20.22;87.13;98866.38;5091027;28;20194;-61
2022/09/10 03:42:32;;;;;;;3.23;2.23;;;;;;;20.24;86.50;98869.59;5090728;28;20239;-61
2022/09/10 03:44:59;;;;;;;2.73;2.27;;;;;;;20.15;87.33;98870.66;5090428;28;20230;-62
2022/09/10 03:47:26;;;;;;;3.13;1.93;;;;;;;20.12;86.98;98872.63;5090974;28;20224;-61
2022/09/10 03:49:53;;;;;;;2.73;1.97;;;;;;;20.10;87.72;98869.41;5090374;28;20227;-61
2022/09/10 03:52:21;;;;;;;2.90;2.00;;;;;;;20.12;87.42;98862.25;5090270;28;20207;-61
2022/09/10 03:54:49;;;;;;;3.07;2.00;;;;;;;20.15;86.90;98868.06;5090275;28;20210;-62
2022/09/10 03:57:17;;;;;;;4.43;2.00;;;;;;;20.15;86.94;98863.69;5090310;28;20248;-62
2022/09/10 03:59:44;;;;;;;2.53;1.97;;;;;;;20.13;86.74;98866.47;5090348;28;20202;-61
2022/09/10 04:02:12;;;;;;;3.43;1.90;;;;;;;20.12;86.78;98862.25;5090073;28;20236;-61
2022/09/10 04:04:38;;;;;;;4.00;2.20;;;;;;;20.13;86.92;98855.28;5089960;28;20240;-62
2022/09/10 04:07:05;;;;;;;2.60;1.80;;;;;;;20.13;86.86;98858.69;5089815;28;20198;-61
2022/09/10 04:09:33;;;;;;;3.10;2.00;;;;;;;20.17;86.88;98863.50;5090041;28;20221;-62
2022/09/10 04:12:00;;;;;;;2.70;1.90;;;;;;;20.20;87.04;98863.16;5089744;28;20197;-61
2022/09/10 04:14:28;;;;;;;2.47;1.93;;;;;;;20.18;87.14;98859.91;5090487;28;20221;-61
2022/09/10 04:16:56;;;;;;;2.40;1.70;;;;;;;20.15;87.32;98855.09;5088566;28;20201;-61
2022/09/10 04:19:23;;;;;;;2.90;1.97;;;;;;;20.17;86.90;98853.94;5089639;28;20231;-61
2022/09/10 04:21:51;;;;;;;2.73;1.90;;;;;;;20.23;86.65;98855.00;5089822;28;20292;-62
2022/09/10 04:24:19;;;;;;;2.53;2.00;;;;;;;20.31;86.49;98849.72;5089507;28;20225;-62
2022/09/10 04:26:45;;;;;;;2.40;1.90;;;;;;;20.34;86.36;98849.38;5089647;28;20593;-61
2022/09/10 04:29:13;;;;;;;2.47;1.90;;;;;;;20.34;86.92;98854.56;5089324;28;20586;-62
2022/09/10 04:31:42;;;;;;;2.37;2.10;;;;;;;20.39;87.05;98852.25;5089871;28;20198;-61
2022/09/10 04:34:09;;;;;;;2.47;1.87;;;;;;;20.45;86.71;98856.72;5089492;28;20221;-62
2022/09/10 04:36:36;;;;;;;1.87;1.70;;;;;;;20.51;86.25;98850.00;5088128;28;20270;-63
2022/09/10 04:39:03;;;;;;;4.37;1.93;;;;;;;20.59;85.53;98852.50;5089535;28;20228;-63
2022/09/10 04:41:30;;;;;;;2.60;2.33;;;;;;;20.69;85.91;98852.25;5089218;28;20209;-61
2022/09/10 04:43:57;;;;;;;2.67;1.80;;;;;;;20.77;85.86;98857.34;5071390;28;20238;-63
2022/09/10 04:46:24;;;;;;;2.73;1.90;;;;;;;20.93;87.88;98857.13;5089758;28;20238;-62
2022/09/10 04:48:53;;;;;;;2.87;2.27;;;;;;;21.07;87.13;98860.66;5089665;28;20594;-62
2022/09/10 04:51:19;;;;;;;2.60;1.70;;;;;;;21.28;85.38;98862.47;5089416;28;20573;-62
2022/09/10 04:53:46;;;;;;;2.47;1.87;;;;;;;21.48;89.56;98863.50;5089196;28;20216;-62
2022/09/10 04:56:14;;;;;;;4.00;2.10;;;;;;;21.65;82.79;98863.25;5088983;28;20208;-62
2022/09/10 04:58:42;;;;;;;2.73;2.07;;;;;;;21.89;83.88;98862.84;5089107;28;20215;-63
2022/09/10 05:01:10;;;;;;;3.17;2.30;;;;;;;22.19;81.61;98870.47;5089231;28;20207;-62
2022/09/10 05:03:37;;;;;;;2.57;2.10;;;;;;;22.40;79.50;98868.78;5090064;28;20268;-62
2022/09/10 05:06:05;;;;;;;3.00;2.00;;;;;;;22.57;83.10;98862.25;5088813;28;20211;-63
2022/09/10 05:08:32;;;;;;;4.10;2.20;;;;;;;22.63;83.37;98860.66;5089369;28;20225;-62
2022/09/10 05:11:01;;;;;;;2.57;2.10;;;;;;;22.66;81.47;98860.28;5088840;28;20641;-63
2022/09/10 05:13:29;;;;;;;3.23;2.20;;;;;;;22.77;80.75;98862.34;5088894;28;20214;-62
2022/09/10 05:15:56;;;;;;;3.20;2.22;;;;;;;22.82;79.74;98868.56;5089015;28;20302;-61
2022/09/10 05:18:24;;;;;;;3.03;2.50;;;;;;;22.96;82.09;98866.06;5089036;28;20241;-63
2022/09/10 05:20:51;;;;;;;3.13;2.35;;;;;;;23.02;80.13;98865.28;5088417;28;20202;-61
2022/09/10 05:23:19;;;;;;;3.92;2.47;;;;;;;23.13;79.41;98861.28;5089498;28;20867;-62
2022/09/10 05:25:47;;;;;;;3.53;2.10;;;;;;;23.32;79.22;98862.31;5089543;28;20202;-63
2022/09/10 05:28:15;;;;;;;2.53;2.25;;;;;;;23.48;78.17;98854.13;5088918;28;20210;-63
2022/09/10 05:30:42;;;;;;;2.38;1.95;;;;;;;23.55;77.63;98867.16;5089262;28;20279;-62
2022/09/10 05:33:08;;;;;;;3.40;1.85;;;;;;;23.58;76.61;98861.53;5089538;28;20222;-63
2022/09/10 05:35:35;;;;;;;2.67;2.08;;;;;;;23.67;77.22;98863.75;5088707;28;20206;-63
2022/09/10 05:38:02;;;;;;;2.58;1.85;;;;;;;23.78;75.70;98859.75;5089266;28;20257;-62
2022/09/10 05:40:30;;;;;;;2.72;1.95;;;;;;;23.93;78.35;98857.72;5089839;28;20243;-62
2022/09/10 05:42:59;;;;;;;2.85;2.00;;;;;;;24.04;77.19;98866.75;5091954;28;20238;-62
2022/09/10 05:45:26;;;;;;;2.58;1.98;;;;;;;24.17;74.38;98869.38;5092345;28;20289;-61
2022/09/10 05:47:53;;;;;;;2.10;1.83;;;;;;;24.33;73.91;98870.72;5092515;28;20222;-61
2022/09/10 05:50:20;;;;;;;2.33;2.00;;;;;;;24.52;73.81;98863.88;5092195;28;20224;-63
2022/09/10 05:52:47;;;;;;;3.38;2.28;;;;;;;24.68;73.46;98875.66;5091972;28;20274;-62
2022/09/10 05:55:13;;;;;;;3.03;1.92;;;;;;;24.88;72.57;98870.34;5092031;28;20725;-61
2022/09/10 05:57:42;;;;;;;2.75;1.90;;;;;;;25.07;69.55;98869.47;5091658;28;20225;-60
2022/09/10 06:00:10;;;;;;;2.28;1.83;;;;;;;25.26;70.03;98880.03;5092064;28;20202;-63
2022/09/10 06:02:37;;;;;;;3.45;2.42;;;;;;;25.50;69.99;98874.03;5091610;28;20305;-63
2022/09/10 06:05:04;;;;;;;3.25;2.30;;;;;;;25.56;67.40;98874.19;5092060;28;20202;-62
2022/09/10 06:07:31;;;;;;;3.35;2.92;;;;;;;25.70;69.22;98873.06;5091837;28;20208;-62
2022/09/10 06:09:58;;;;;;;3.33;2.25;;;;;;;25.71;66.01;98869.44;5091744;28;20202;-63
2022/09/10 06:12:26;;;;;;;3.65;2.30;;;;;;;25.76;66.54;98872.22;5091543;28;20205;-62
2022/09/10 06:14:54;;;;;;;3.03;2.30;;;;;;;25.76;66.96;98872.22;5091943;28;20259;-64
2022/09/10 06:17:21;;;;;;;2.80;2.28;;;;;;;25.76;67.62;98872.22;5091212;28;20210;-62
2022/09/10 06:19:50;;;;;;;3.65;2.38;;;;;;;26.03;66.29;98879.88;5091548;28;20210;-63
2022/09/10 06:22:17;;;;;;;2.40;1.90;;;;;;;26.20;65.77;98883.53;5091637;28;20633;-61
2022/09/10 06:24:48;;;;;;;2.13;1.77;;;;;;;26.35;67.75;98876.09;5092269;28;20252;-61
2022/09/10 06:27:15;;;;;;;3.00;2.20;;;;;;;26.40;63.97;98875.47;5090775;28;20198;-62
2022/09/10 06:29:41;;;;;;;2.58;2.25;;;;;;;26.34;63.78;98887.63;5091729;28;20209;-62
2022/09/10 06:32:10;;;;;;;3.63;2.38;;;;;;;26.41;63.37;98890.16;5091144;28;20202;-63
2022/09/10 06:34:36;;;;;;;3.05;2.30;;;;;;;26.35;62.55;98883.97;5092223;28;20218;-63
2022/09/10 06:37:04;;;;;;;4.25;2.20;;;;;;;26.30;64.91;98888.28;5091072;28;20288;-62
2022/09/10 06:39:31;;;;;;;3.22;2.30;;;;;;;26.29;64.98;98886.66;5091539;28;20657;-63
2022/09/10 06:41:59;;;;;;;3.30;2.40;;;;;;;26.27;65.24;98893.94;5090789;28;20575;-61
2022/09/10 06:44:26;;;;;;;3.50;2.25;;;;;;;26.25;65.91;98896.78;5091300;28;20622;-61
2022/09/10 06:46:53;;;;;;;4.03;2.42;;;;;;;26.16;66.36;98892.84;5091077;28;20205;-61
2022/09/10 06:49:22;;;;;;;4.25;2.30;;;;;;;26.14;64.25;98900.91;5090844;28;20214;-63
2022/09/10 06:51:49;;;;;;;2.67;2.10;;;;;;;26.16;64.53;98903.34;5090629;28;20201;-63
2022/09/10 06:54:16;;;;;;;2.40;2.10;;;;;;;26.28;65.52;98904.22;5090959;28;20226;-61
2022/09/10 06:56:45;;;;;;;3.25;2.47;;;;;;;26.70;63.77;98899.13;5090282;28;20202;-61
2022/09/10 06:59:13;;;;;;;2.45;2.03;;;;;;;26.98;62.11;98897.81;5090800;28;20217;-62
2022/09/10 07:01:40;;;;;;;2.92;2.20;;;;;;;27.35;61.04;98900.38;5086107;28;20205;-63
2022/09/10 07:04:08;;;;;;;3.70;2.30;;;;;;;27.71;60.25;98908.06;5088811;28;20229;-62
2022/09/10 07:06:37;;;;;;;3.72;2.50;;;;;;;27.67;57.38;98903.50;5088918;28;20194;-62
2022/09/10 07:09:04;;;;;;;4.05;2.63;;;;;;;27.45;60.03;98904.03;5083490;28;20440;-63
2022/09/10 07:11:31;;;;;;;3.00;2.30;;;;;;;27.47;58.32;98909.06;5088280;28;20817;-64
2022/09/10 07:14:00;;;;;;;2.47;1.83;;;;;;;27.49;59.64;98901.78;5086485;28;20236;-64
2022/09/10 07:16:27;;;;;;;2.03;1.67;;;;;;;27.22;57.02;98906.59;5088929;28;20212;-65
2022/09/10 07:18:56;;;;;;;2.17;1.75;;;;;;;27.35;59.78;98906.41;5087690;28;20630;-61
2022/09/10 07:21:26;;;;;;;3.42;2.15;;;;;;;27.31;59.40;98908.69;5086105;28;20202;-62
2022/09/10 07:23:57;;;;;;;2.40;1.90;;;;;;;27.29;58.69;98902.06;5085954;28;20229;-64
2022/09/10 07:26:24;;;;;;;3.40;2.22;;;;;;;27.31;58.46;98905.25;5085820;28;20206;-65
2022/09/10 07:28:52;;;;;;;4.80;3.65;;;;;;;27.34;61.71;98909.25;5086072;28;20210;-63
2022/09/10 07:31:20;;;;;;;3.28;2.40;;;;;;;27.16;59.53;98907.47;5088145;28;20202;-63
2022/09/10 07:33:48;;;;;;;2.88;2.45;;;;;;;27.02;60.29;98909.44;5086947;28;20217;-65
2022/09/10 07:36:17;;;;;;;4.72;2.72;;;;;;;27.12;61.76;98907.09;5089017;28;20221;-64
2022/09/10 07:38:44;;;;;;;2.47;2.08;;;;;;;27.07;59.39;98909.59;5088210;28;20253;-65
2022/09/10 07:41:14;;;;;;;2.90;2.35;;;;;;;27.10;59.57;98917.00;5088373;28;20198;-66
2022/09/10 07:43:42;;;;;;;12.90;8.27;;;;;;;27.17;61.22;98915.16;5075485;28;20401;-67
2022/09/10 07:46:12;;;;;;;2.55;2.03;;;;;;;27.26;59.84;98921.69;5069215;28;20686;-65
2022/09/10 07:48:39;;;;;;;6.70;4.20;;;;;;;27.36;61.26;98925.59;5069036;28;20226;-65
2022/09/10 07:51:07;;;;;;;5.20;3.15;;;;;;;27.36;60.03;98928.22;5069491;28;20285;-65
2022/09/10 07:53:34;;;;;;;4.13;2.83;;;;;;;27.26;60.20;98918.25;5069054;28;20258;-64
2022/09/10 07:56:03;;;;;;;3.85;2.65;;;;;;;27.25;59.98;98921.88;5069109;28;20285;-65
2022/09/10 07:58:34;;;;;;;2.78;2.20;;;;;;;27.28;60.51;98922.22;5079712;28;20236;-64
2022/09/10 08:01:02;;;;;;;4.65;2.47;;;;;;;27.15;59.06;98911.94;5088218;28;20276;-64
2022/09/10 08:03:30;;;;;;;2.83;2.38;;;;;;;27.17;59.34;98909.91;5081359;28;20244;-63
2022/09/10 08:06:00;;;;;;;8.82;6.03;;;;;;;27.21;59.48;98916.28;5084226;28;20315;-63
2022/09/10 08:08:30;;;;;;;3.08;2.30;;;;;;;27.31;62.75;98927.06;5082548;28;20229;-63
2022/09/10 08:11:04;;;;;;;6.07;4.65;;;;;;;27.35;61.78;98921.38;5088119;28;20202;-63
2022/09/10 08:13:35;;;;;;;2.33;2.03;;;;;;;27.28;61.07;98924.06;5083380;28;20222;-64
2022/09/10 08:16:05;;;;;;;2.78;2.17;;;;;;;27.21;59.49;98921.53;5088173;28;20198;-65
2022/09/10 08:18:32;;;;;;;2.67;2.17;;;;;;;27.05;60.20;98920.31;5087017;28;20722;-66
2022/09/10 08:20:59;;;;;;;3.22;2.20;;;;;;;27.16;59.88;98933.72;5087135;28;20665;-64
2022/09/10 08:23:27;;;;;;;2.28;2.03;;;;;;;27.26;62.27;98936.63;5079916;28;20705;-65
2022/09/10 08:25:55;;;;;;;4.15;2.45;;;;;;;27.06;60.58;98940.28;5068884;28;20196;-66
2022/09/10 08:28:22;;;;;;;2.50;2.17;;;;;;;27.08;60.33;98933.00;5068425;28;20652;-66
2022/09/10 08:30:58;;;;;;;3.42;2.10;;;;;;;26.91;61.67;98928.56;5069008;28;20214;-66
2022/09/10 08:33:25;;;;;;;4.93;3.85;;;;;;;27.02;62.07;98927.81;5068680;28;20699;-67
2022/09/10 08:35:56;;;;;;;2.78;2.38;;;;;;;27.05;62.82;98922.94;5079324;28;20198;-68
2022/09/10 08:38:24;;;;;;;4.40;3.22;;;;;;;27.17;61.95;98915.16;5087467;28;20225;-67
2022/09/10 08:40:53;;;;;;;2.90;2.58;;;;;;;27.25;61.01;98922.69;5087789;28;20707;-65
2022/09/10 08:43:27;;;;;;;4.22;3.58;;;;;;;27.37;62.06;98911.41;5087390;28;20306;-65
2022/09/10 08:46:00;;;;;;;2.85;2.35;;;;;;;27.22;59.32;98915.25;5088099;28;20539;-66
2022/09/10 08:48:30;;;;;;;3.13;2.83;;;;;;;27.30;62.27;98914.94;5083392;28;20639;-63
2022/09/10 08:51:01;;;;;;;3.50;2.40;;;;;;;27.35;59.84;98916.13;5083280;28;20378;-61
2022/09/10 08:53:33;;;;;;;3.35;2.30;;;;;;;27.49;60.58;98907.03;5085467;28;20229;-63
2022/09/10 08:56:04;;;;;;;3.35;2.95;;;;;;;27.62;60.36;98901.56;5084956;28;20267;-64
2022/09/10 08:58:41;;;;;;;3.15;2.45;;;;;;;28.02;62.65;98900.16;5085601;28;20218;-63
2022/09/10 09:01:15;;;;;;;3.83;2.50;;;;;;;28.47;59.23;98896.91;5087308;28;20243;-62
2022/09/10 09:03:46;;;;;;;4.32;3.25;;;;;;;29.00;62.40;98886.13;5086611;28;20839;-62
2022/09/10 09:06:24;;;;;;;4.85;3.38;;;;;;;29.46;60.36;98881.63;5087077;28;20285;-63
2022/09/10 09:08:53;;;;;;;3.10;2.50;;;;;;;29.54;56.08;98878.63;5086219;28;20279;-62
2022/09/10 09:11:29;;;;;;;3.13;2.03;;;;;;;29.35;56.11;98887.78;5087744;28;20229;-63
2022/09/10 09:14:21;;;;;;;3.05;2.40;;;;;;;29.49;55.65;98883.78;5087974;28;20679;-63
2022/09/10 09:17:05;;;;;;;5.45;3.70;;;;;;;29.55;57.15;98872.31;5090971;28;20527;-63
2022/09/10 09:19:34;;;;;;;4.45;2.97;;;;;;;29.72;53.64;98882.88;5089053;28;20751;-64
2022/09/10 09:22:08;;;;;;;2.92;2.40;;;;;;;29.48;53.06;98878.78;5090608;28;20212;-63
2022/09/10 09:24:47;;;;;;;3.03;2.42;;;;;;;29.71;53.60;98875.22;5089346;28;20393;-64
2022/09/10 09:27:17;;;;;;;3.10;2.10;;;;;;;29.77;55.02;98879.53;5088829;28;20201;-65
2022/09/10 09:29:50;;;;;;;3.38;2.28;;;;;;;29.87;55.28;98871.75;5090926;28;20213;-66
2022/09/10 09:32:21;;;;;;;3.42;2.40;;;;;;;30.13;54.43;98861.56;5088827;28;20206;-64
2022/09/10 09:34:53;;;;;;;3.45;2.30;;;;;;;30.52;52.79;98865.00;5090232;28;20682;-65
2022/09/10 09:37:24;;;;;;;2.88;2.08;;;;;;;30.57;51.07;98864.22;5088678;28;20198;-66
2022/09/10 09:40:03;;;;;;;3.03;2.30;;;;;;;30.56;50.44;98858.16;5092160;28;20194;-65
2022/09/10 09:42:39;;;;;;;2.53;2.03;;;;;;;30.38;49.75;98854.00;5092831;28;20198;-65
2022/09/10 09:45:16;;;;;;;3.35;2.58;;;;;;;30.49;50.89;98848.84;5092585;28;20230;-65
2022/09/10 09:47:46;;;;;;;2.92;2.47;;;;;;;30.95;52.41;98833.50;5092611;28;20229;-66
2022/09/10 09:50:13;;;;;;;3.53;2.45;;;;;;;31.42;51.80;98838.97;5092330;28;20204;-65
2022/09/10 09:52:43;;;;;;;2.83;1.98;;;;;;;31.64;50.06;98843.31;5092553;28;20214;-65
2022/09/10 09:55:22;;;;;;;3.60;2.40;;;;;;;31.55;48.64;98841.16;5092564;28;20597;-65
2022/09/10 09:58:13;;;;;;;4.32;2.38;;;;;;;31.09;47.15;98845.25;5092420;28;20218;-65
2022/09/10 10:00:40;;;;;;;2.67;2.25;;;;;;;30.86;48.09;98849.81;5090088;28;20245;-63
2022/09/10 10:03:15;;;;;;;3.30;2.10;;;;;;;31.25;51.31;98841.69;5091956;28;20214;-63
2022/09/10 10:05:42;;;;;;;2.15;1.95;;;;;;;31.45;48.94;98850.88;5091563;28;20239;-63
2022/09/10 10:08:28;;;;;;;3.58;2.97;;;;;;;31.50;47.31;98853.53;5091609;28;20287;-63
2022/09/10 10:10:55;;;;;;;3.20;2.40;;;;;;;31.39;49.04;98843.94;5090442;28;20226;-63
2022/09/10 10:13:22;;;;;;;2.90;2.00;;;;;;;31.34;47.21;98850.75;5089577;28;20226;-63
2022/09/10 10:15:51;;;;;;;3.97;2.65;;;;;;;31.77;49.78;98848.97;5089913;28;20699;-62
2022/09/10 10:18:34;;;;;;;3.67;2.42;;;;;;;32.08;48.33;98854.44;5087003;28;20241;-63
2022/09/10 10:21:18;;;;;;;3.38;2.30;;;;;;;32.13;48.23;98851.81;5084586;28;20210;-63
2022/09/10 10:23:46;;;;;;;4.28;3.30;;;;;;;32.08;47.72;98851.78;5089044;28;20214;-62
2022/09/10 10:26:24;;;;;;;2.80;2.13;;;;;;;31.61;47.06;98859.69;5090209;28;20202;-63
2022/09/10 10:28:55;;;;;;;3.72;2.47;;;;;;;31.46;49.73;98845.31;5086558;28;20222;-61
2022/09/10 10:31:22;;;;;;;6.32;3.92;;;;;;;31.67;49.08;98840.97;5089681;28;20668;-62
2022/09/10 10:33:59;;;;;;;2.88;2.45;;;;;;;31.62;50.92;98834.84;5089321;28;20233;-64
2022/09/10 10:36:39;;;;;;;3.08;2.40;;;;;;;31.60;47.92;98837.75;5088382;28;20272;-65
2022/09/10 10:39:15;;;;;;;2.58;2.30;;;;;;;31.48;48.28;98840.59;5086702;28;20222;-65
2022/09/10 10:41:55;;;;;;;2.10;1.90;;;;;;;31.56;49.73;98834.84;5087643;28;20209;-65
2022/09/10 10:44:37;;;;;;;3.47;2.05;;;;;;;31.52;48.56;98833.72;5089413;28;20230;-66
2022/09/10 10:47:24;;;;;;;2.58;1.80;;;;;;;31.24;48.15;98832.19;5087757;28;20212;-66
2022/09/10 10:50:02;;;;;;;2.53;2.10;;;;;;;31.17;49.58;98826.31;5088425;28;20710;-62
2022/09/10 10:52:39;;;;;;;2.13;1.92;;;;;;;30.87;48.53;98832.91;5091055;28;20214;-65
2022/09/10 10:55:16;;;;;;;2.85;2.00;;;;;;;30.90;48.21;98819.22;5090878;28;20605;-62
2022/09/10 10:58:16;;;;;;;3.42;1.92;;;;;;;30.97;50.62;98824.28;5091372;28;20226;-66
2022/09/10 11:00:47;;;;;;;4.05;2.40;;;;;;;30.79;49.97;98822.81;5090988;28;20597;-67
2022/09/10 11:03:20;;;;;;;3.72;2.47;;;;;;;30.69;50.54;98822.69;5091102;28;20592;-69
2022/09/10 11:05:51;;;;;;;3.58;2.15;;;;;;;30.31;50.73;98820.94;5090798;28;20233;-62
2022/09/10 11:08:32;;;;;;;3.22;2.28;;;;;;;30.20;51.19;98820.00;5091062;28;20307;-63
2022/09/10 11:11:04;;;;;;;3.28;2.70;;;;;;;30.12;52.30;98823.84;5090283;28;20475;-65
2022/09/10 11:13:37;;;;;;;5.25;3.55;;;;;;;30.17;53.72;98820.50;5090774;28;20474;-63
2022/09/10 11:16:11;;;;;;;6.20;2.60;;;;;;;29.82;52.27;98821.63;5090870;28;20186;-64
2022/09/10 11:18:46;;;;;;;3.80;2.40;;;;;;;29.97;55.60;98813.91;5090345;28;20221;-65
2022/09/10 11:21:20;;;;;;;3.63;2.53;;;;;;;29.81;52.72;98806.84;5090399;28;20185;-66
2022/09/10 11:23:53;;;;;;;3.78;2.47;;;;;;;29.63;53.51;98809.75;5090717;28;20213;-63
2022/09/10 11:26:27;;;;;;;3.45;2.50;;;;;;;29.52;52.03;98800.84;5089269;28;20278;-63
2022/09/10 11:29:03;;;;;;;3.40;2.63;;;;;;;29.68;52.26;98807.19;5088262;28;20214;-63
2022/09/10 11:31:35;;;;;;;4.93;2.90;;;;;;;30.13;53.23;98803.53;5086266;28;20546;-60
2022/09/10 11:34:05;;;;;;;3.83;2.45;;;;;;;30.33;50.68;98798.53;5093741;28;20633;-66
2022/09/10 11:36:41;;;;;;;3.17;2.30;;;;;;;30.41;51.28;98792.03;5087062;28;20182;-63
2022/09/10 11:39:17;;;;;;;4.35;2.15;;;;;;;30.37;52.74;98801.47;5092080;28;20275;-63
2022/09/10 11:41:48;;;;;;;3.33;2.60;;;;;;;30.66;52.50;98786.22;5085892;28;20193;-62
2022/09/10 11:44:33;;;;;;;2.83;2.22;;;;;;;30.55;49.42;98795.09;5089052;28;20699;-62
2022/09/10 11:47:05;;;;;;;2.55;1.92;;;;;;;30.28;50.02;98798.47;5089652;28;20259;-62
2022/09/10 11:49:42;;;;;;;1.90;1.70;;;;;;;30.40;51.66;98788.63;5089893;28;20226;-63